Time;durP1;ratioP1;P1;durP2;ratioP2;P2;SDS_P1;SDS_P2;PMS_P1;PMS_P2;Temp;Humidity;BMP_temperature;BMP_pressure;BME280_temperature;BME280_humidity;BME280_pressure;Samples;Min_cycle;Max_cycle;Signal;HPM_P1;HPM_P2
2023/03/16 03:01:21;;;;;;;18.50;16.70;;;-0.10;99.90;;;;;;5608096;23;20509;-78
2023/03/16 03:03:49;;;;;;;19.10;17.40;;;-0.20;99.90;;;;;;4968001;28;20578;-78
2023/03/16 03:06:15;;;;;;;18.13;16.73;;;-0.20;99.90;;;;;;4974456;28;20935;-78
2023/03/16 03:08:42;;;;;;;17.83;16.43;;;-0.20;99.90;;;;;;4972176;28;20894;-78
2023/03/16 03:11:10;;;;;;;18.90;17.30;;;-0.30;99.90;;;;;;4969395;28;20464;-78
2023/03/16 03:13:38;;;;;;;20.00;18.17;;;-0.20;99.90;;;;;;4972316;28;20960;-78
2023/03/16 03:16:06;;;;;;;19.53;17.73;;;-0.20;99.90;;;;;;4964154;28;20989;-77
2023/03/16 03:18:34;;;;;;;19.10;17.40;;;-0.20;99.90;;;;;;4968561;28;20457;-78
2023/03/16 03:21:01;;;;;;;20.33;18.23;;;-0.20;99.90;;;;;;4960927;28;20501;-78
2023/03/16 03:23:28;;;;;;;18.63;16.83;;;-0.20;99.90;;;;;;4967482;28;20457;-79
2023/03/16 03:25:58;;;;;;;19.40;17.80;;;-0.30;99.90;;;;;;4949157;28;20831;-78
2023/03/16 03:28:25;;;;;;;19.43;17.80;;;-0.20;99.90;;;;;;4961350;28;20480;-78
2023/03/16 03:30:51;;;;;;;18.97;17.17;;;-0.30;99.90;;;;;;4971708;28;20463;-77
2023/03/16 03:33:18;;;;;;;18.77;17.07;;;-0.30;99.90;;;;;;4966389;28;20461;-78
2023/03/16 03:35:47;;;;;;;18.70;17.00;;;-0.30;99.90;;;;;;4962028;28;20446;-78
2023/03/16 03:38:13;;;;;;;18.83;17.20;;;-0.30;99.90;;;;;;4971944;28;20446;-77
2023/03/16 03:40:44;;;;;;;19.10;17.47;;;-0.30;99.90;;;;;;4970781;28;20468;-77
2023/03/16 03:43:12;;;;;;;18.20;16.70;;;-0.40;99.90;;;;;;4969115;28;20453;-78
2023/03/16 03:45:42;;;;;;;19.37;17.57;;;-0.40;99.90;;;;;;4970450;28;20882;-78
2023/03/16 03:48:09;;;;;;;18.67;16.93;;;-0.40;99.90;;;;;;4967503;28;20493;-78
2023/03/16 03:50:37;;;;;;;20.03;18.23;;;-0.40;99.90;;;;;;4963721;28;20455;-78
2023/03/16 03:53:34;;;;;;;19.53;17.73;;;-0.40;99.90;;;;;;4951858;28;20520;-84
2023/03/16 03:56:18;;;;;;;19.43;17.67;;;-0.40;99.90;;;;;;4959288;28;20547;-84
2023/03/16 03:58:46;;;;;;;19.40;17.50;;;-0.50;99.90;;;;;;4955298;28;20472;-85
2023/03/16 04:01:18;;;;;;;20.87;18.77;;;-0.50;99.90;;;;;;4947931;28;20481;-86
2023/03/16 04:03:46;;;;;;;18.93;17.30;;;-0.50;99.90;;;;;;4952480;28;20461;-85
2023/03/16 04:06:15;;;;;;;18.93;17.10;;;-0.40;99.90;;;;;;4947103;28;21002;-86
2023/03/16 04:08:44;;;;;;;18.67;16.93;;;-0.50;99.90;;;;;;4953154;28;20557;-85
2023/03/16 04:11:17;;;;;;;18.53;16.90;;;-0.40;99.90;;;;;;4949603;28;20624;-85
2023/03/16 04:13:44;;;;;;;19.27;17.67;;;-0.50;99.90;;;;;;4951301;28;20511;-85
2023/03/16 04:16:15;;;;;;;19.07;17.47;;;-0.50;99.90;;;;;;4946375;28;20886;-85
2023/03/16 04:18:45;;;;;;;20.13;18.23;;;-0.50;99.90;;;;;;4963886;28;20452;-84
2023/03/16 04:21:15;;;;;;;20.50;18.60;;;-0.40;99.90;;;;;;4962294;28;20559;-85
2023/03/16 04:23:44;;;;;;;21.63;19.57;;;-0.40;99.90;;;;;;4966963;28;20877;-83
2023/03/16 04:26:21;;;;;;;20.43;18.63;;;-0.30;99.90;;;;;;4955085;28;20488;-84
2023/03/16 04:28:49;;;;;;;20.73;18.83;;;-0.30;99.90;;;;;;4959485;28;20529;-82
2023/03/16 04:31:19;;;;;;;20.80;18.97;;;-0.40;99.90;;;;;;4956931;28;20478;-85
2023/03/16 04:33:47;;;;;;;19.77;18.17;;;-0.40;99.90;;;;;;4955009;28;20482;-83
2023/03/16 04:36:14;;;;;;;18.50;16.80;;;-0.50;99.90;;;;;;4955935;28;20501;-83
2023/03/16 04:38:41;;;;;;;19.37;17.70;;;-0.50;99.90;;;;;;4950700;28;20452;-84
2023/03/16 04:41:11;;;;;;;20.37;18.63;;;-0.50;99.90;;;;;;4958038;28;20473;-84
2023/03/16 04:43:44;;;;;;;19.67;18.13;;;-0.50;99.90;;;;;;4962909;28;20467;-84
2023/03/16 04:46:20;;;;;;;20.17;18.37;;;-0.50;99.90;;;;;;4955872;28;20453;-83
2023/03/16 04:48:47;;;;;;;19.07;17.43;;;-0.50;99.90;;;;;;4956942;28;20565;-84
2023/03/16 04:51:14;;;;;;;19.90;18.00;;;-0.50;99.90;;;;;;4962527;28;20479;-78
2023/03/16 04:53:47;;;;;;;18.50;16.90;;;-0.60;99.90;;;;;;4976976;28;20952;-77
2023/03/16 04:56:32;;;;;;;19.67;18.07;;;-0.60;99.90;;;;;;4970638;28;20747;-79
2023/03/16 04:59:03;;;;;;;19.13;17.53;;;-0.50;99.90;;;;;;4965794;28;20965;-78
2023/03/16 05:01:39;;;;;;;20.70;18.70;;;-0.60;99.90;;;;;;4963594;28;20478;-77
2023/03/16 05:04:07;;;;;;;20.20;18.60;;;-0.60;99.90;;;;;;4970770;28;20447;-78
2023/03/16 05:06:37;;;;;;;19.27;17.67;;;-0.60;99.90;;;;;;4969181;28;20455;-78
2023/03/16 05:09:04;;;;;;;20.50;18.70;;;-0.60;99.90;;;;;;4964112;28;20487;-77
2023/03/16 05:11:36;;;;;;;20.60;18.60;;;-0.70;99.90;;;;;;4963555;28;20556;-78
2023/03/16 05:14:07;;;;;;;20.50;18.70;;;-0.60;99.90;;;;;;4957537;28;20447;-77
2023/03/16 05:16:42;;;;;;;20.80;19.00;;;-0.70;99.90;;;;;;4968375;28;20456;-78
2023/03/16 05:19:09;;;;;;;19.60;17.87;;;-0.70;99.90;;;;;;4968516;28;20466;-78
2023/03/16 05:21:37;;;;;;;20.00;18.40;;;-0.70;99.90;;;;;;4968457;28;20508;-77
2023/03/16 05:24:08;;;;;;;20.43;18.63;;;-0.70;99.90;;;;;;4962297;28;20477;-77
2023/03/16 05:26:36;;;;;;;20.10;18.40;;;-0.70;99.90;;;;;;4968669;28;20451;-77
2023/03/16 05:29:06;;;;;;;19.17;17.57;;;-0.70;99.90;;;;;;4966244;28;21105;-79
2023/03/16 05:31:33;;;;;;;19.73;18.00;;;-0.70;99.90;;;;;;4969480;28;20501;-77
2023/03/16 05:34:03;;;;;;;20.00;18.20;;;-0.70;99.90;;;;;;4967751;28;20447;-78
2023/03/16 05:36:30;;;;;;;19.90;18.17;;;-0.70;99.90;;;;;;4963001;28;20841;-78
2023/03/16 05:39:04;;;;;;;19.47;17.90;;;-0.70;99.90;;;;;;4957012;28;20457;-78
2023/03/16 05:41:37;;;;;;;19.37;17.70;;;-0.70;99.90;;;;;;4970827;28;20497;-77
2023/03/16 05:44:12;;;;;;;20.73;18.87;;;-0.70;99.90;;;;;;4970381;28;20458;-78
2023/03/16 05:47:14;;;;;;;20.70;18.80;;;-0.70;99.90;;;;;;4965088;28;20528;-78
2023/03/16 05:49:45;;;;;;;19.93;18.23;;;-0.70;99.90;;;;;;4964785;28;21001;-77
2023/03/16 05:52:24;;;;;;;20.17;18.57;;;-0.70;99.90;;;;;;4955260;28;20484;-78
2023/03/16 05:54:50;;;;;;;20.27;18.53;;;-0.70;99.90;;;;;;4950258;28;20544;-78
2023/03/16 05:57:19;;;;;;;19.80;18.20;;;-0.60;99.90;;;;;;4961800;28;20538;-78
2023/03/16 05:59:49;;;;;;;20.83;19.03;;;-0.60;99.90;;;;;;4960863;28;20450;-79
2023/03/16 06:02:16;;;;;;;20.47;18.63;;;-0.50;99.90;;;;;;4977445;28;20480;-78
2023/03/16 06:04:43;;;;;;;19.17;17.57;;;-0.40;99.90;;;;;;4975159;28;20546;-77
2023/03/16 06:07:10;;;;;;;20.10;18.50;;;-0.40;99.90;;;;;;4970862;28;21016;-78
2023/03/16 06:09:37;;;;;;;18.87;17.37;;;-0.40;99.90;;;;;;4967911;28;20454;-78
2023/03/16 06:12:11;;;;;;;18.93;17.43;;;-0.40;99.90;;;;;;4952170;28;20474;-78
2023/03/16 06:14:40;;;;;;;17.93;16.60;;;-0.40;99.90;;;;;;4974240;28;20454;-77
2023/03/16 06:17:08;;;;;;;19.70;18.00;;;-0.30;99.90;;;;;;4976126;28;20447;-78
2023/03/16 06:19:35;;;;;;;18.30;16.80;;;-0.20;99.90;;;;;;4972372;28;20456;-78
2023/03/16 06:22:02;;;;;;;17.27;16.03;;;0.00;99.90;;;;;;4978298;28;20503;-78
2023/03/16 06:24:30;;;;;;;17.43;16.10;;;0.10;99.90;;;;;;4966140;28;20475;-78
2023/03/16 06:26:57;;;;;;;17.93;16.57;;;0.30;99.90;;;;;;4977526;28;20459;-79
2023/03/16 06:29:30;;;;;;;18.50;16.73;;;0.40;99.90;;;;;;4954669;28;20472;-78
2023/03/16 06:31:58;;;;;;;17.97;16.53;;;0.40;99.90;;;;;;4963329;28;20565;-78
2023/03/16 06:34:25;;;;;;;18.07;16.67;;;0.40;99.90;;;;;;4963113;28;20447;-78
2023/03/16 06:36:56;;;;;;;17.53;16.30;;;0.50;99.90;;;;;;4970570;28;20956;-78
2023/03/16 06:39:23;;;;;;;17.33;16.00;;;0.70;99.90;;;;;;4968996;28;20827;-79
2023/03/16 06:41:51;;;;;;;17.13;15.73;;;0.70;99.90;;;;;;4965310;28;21008;-84
2023/03/16 06:44:18;;;;;;;17.47;16.10;;;0.90;99.90;;;;;;4969250;28;20445;-84
2023/03/16 06:46:56;;;;;;;16.67;15.37;;;1.10;99.90;;;;;;4954178;28;20545;-85
2023/03/16 06:49:24;;;;;;;17.47;16.07;;;1.30;99.90;;;;;;4966840;28;20484;-79
2023/03/16 06:51:51;;;;;;;17.63;16.23;;;1.40;99.90;;;;;;4961524;28;20477;-79
2023/03/16 06:54:18;;;;;;;17.93;16.43;;;1.60;99.90;;;;;;4948053;28;20457;-79
2023/03/16 06:56:45;;;;;;;17.93;16.47;;;1.80;99.90;;;;;;4958082;28;20486;-79
2023/03/16 06:59:12;;;;;;;17.27;15.97;;;1.90;99.90;;;;;;4969784;28;20503;-76
2023/03/16 07:01:39;;;;;;;17.30;16.00;;;2.10;99.90;;;;;;4966862;28;20322;-75
2023/03/16 07:04:06;;;;;;;17.50;16.07;;;2.30;99.90;;;;;;4974731;28;20504;-76
2023/03/16 07:06:35;;;;;;;18.20;16.70;;;2.40;99.90;;;;;;4965444;28;20672;-75
2023/03/16 07:09:03;;;;;;;17.87;16.27;;;2.60;99.90;;;;;;4960520;28;20500;-75
2023/03/16 07:11:31;;;;;;;18.93;17.30;;;2.70;99.90;;;;;;4969079;28;20238;-76
2023/03/16 07:13:58;;;;;;;17.87;16.47;;;2.90;99.90;;;;;;4966454;28;20245;-76
2023/03/16 07:16:26;;;;;;;17.50;16.10;;;3.00;99.90;;;;;;4946063;28;20329;-76
2023/03/16 07:18:54;;;;;;;18.07;16.67;;;3.20;99.90;;;;;;4951308;28;20190;-76
2023/03/16 07:21:21;;;;;;;18.80;17.30;;;3.30;99.90;;;;;;4957116;28;20305;-75
2023/03/16 07:23:50;;;;;;;18.47;16.77;;;3.50;99.90;;;;;;4950741;28;20621;-76
2023/03/16 07:26:22;;;;;;;19.77;18.07;;;3.80;99.90;;;;;;4950035;28;20685;-76
2023/03/16 07:28:53;;;;;;;18.57;16.97;;;4.10;99.90;;;;;;4950695;28;20234;-77
2023/03/16 07:31:21;;;;;;;18.73;17.23;;;4.40;99.90;;;;;;4962274;28;20221;-76
2023/03/16 07:33:48;;;;;;;17.83;16.43;;;4.50;99.90;;;;;;4955105;28;20233;-76
2023/03/16 07:36:23;;;;;;;17.20;15.87;;;4.90;99.90;;;;;;4969256;28;20203;-76
2023/03/16 07:38:57;;;;;;;16.83;15.63;;;5.40;99.90;;;;;;4963773;28;20202;-77
2023/03/16 07:41:24;;;;;;;16.43;15.17;;;5.70;99.90;;;;;;4964087;28;20570;-85
2023/03/16 07:43:51;;;;;;;16.70;15.37;;;5.90;99.90;;;;;;4967232;28;20236;-83
2023/03/16 07:46:18;;;;;;;15.57;14.43;;;6.10;99.90;;;;;;4958383;28;20213;-82
2023/03/16 07:48:45;;;;;;;17.10;15.77;;;6.60;99.90;;;;;;4966301;28;20696;-81
2023/03/16 07:51:13;;;;;;;17.30;16.00;;;6.70;99.90;;;;;;4989017;28;20221;-77
2023/03/16 07:53:42;;;;;;;17.73;16.33;;;7.00;99.90;;;;;;4965122;28;20225;-77
2023/03/16 07:56:20;;;;;;;16.87;15.53;;;7.30;99.90;;;;;;4963657;28;20219;-79
2023/03/16 07:58:51;;;;;;;14.37;13.17;;;7.50;99.90;;;;;;4961743;28;20225;-79
2023/03/16 08:01:18;;;;;;;9.87;8.87;;;7.70;99.90;;;;;;4965571;28;20225;-78
2023/03/16 08:03:45;;;;;;;12.53;11.43;;;7.90;99.90;;;;;;4967048;28;20236;-79
2023/03/16 08:06:12;;;;;;;9.67;8.50;;;7.90;99.90;;;;;;4958147;28;20417;-78
2023/03/16 08:08:39;;;;;;;9.33;8.33;;;8.30;99.90;;;;;;4961698;28;20224;-80
2023/03/16 08:11:06;;;;;;;9.10;7.77;;;8.40;99.90;;;;;;4965651;28;20259;-79
2023/03/16 08:13:52;;;;;;;9.63;8.07;;;8.50;99.90;;;;;;4958415;28;20270;-79
2023/03/16 08:16:20;;;;;;;9.43;8.43;;;8.60;99.90;;;;;;4956622;28;20199;-78
2023/03/16 08:18:48;;;;;;;10.73;9.20;;;8.50;99.90;;;;;;4958363;28;20222;-78
2023/03/16 08:21:15;;;;;;;9.93;8.47;;;8.60;99.90;;;;;;4972043;28;20280;-78
2023/03/16 08:23:48;;;;;;;8.83;7.90;;;8.90;99.90;;;;;;4964194;28;20578;-76
2023/03/16 08:26:17;;;;;;;9.40;7.53;;;8.90;99.90;;;;;;4967279;28;20201;-78
2023/03/16 08:28:45;;;;;;;10.00;8.47;;;9.10;99.90;;;;;;4952313;28;20654;-78
2023/03/16 08:31:15;;;;;;;8.77;7.87;;;9.40;99.90;;;;;;4959500;28;20244;-77
2023/03/16 08:33:50;;;;;;;10.10;8.77;;;9.60;99.90;;;;;;4965375;28;20189;-76
2023/03/16 08:36:21;;;;;;;9.90;8.53;;;9.40;99.90;;;;;;4964262;28;20197;-77
2023/03/16 08:38:53;;;;;;;9.23;8.00;;;9.40;99.90;;;;;;4962106;28;20674;-77
2023/03/16 08:41:21;;;;;;;10.60;9.37;;;9.30;99.90;;;;;;4967060;28;20229;-77
2023/03/16 08:43:49;;;;;;;11.87;9.63;;;9.40;99.90;;;;;;4966450;28;20584;-77
2023/03/16 08:46:17;;;;;;;10.53;8.77;;;9.70;99.90;;;;;;4940235;28;20262;-76
2023/03/16 08:48:51;;;;;;;11.43;10.20;;;9.90;99.90;;;;;;4952258;28;20223;-76
2023/03/16 08:51:18;;;;;;;11.40;10.30;;;9.90;99.90;;;;;;4964087;28;20218;-79
2023/03/16 08:53:45;;;;;;;16.63;15.33;;;10.30;99.90;;;;;;4964981;28;20306;-77
2023/03/16 08:56:14;;;;;;;17.77;16.37;;;10.50;99.90;;;;;;4963520;28;20260;-78
2023/03/16 08:58:44;;;;;;;18.07;16.40;;;10.40;99.90;;;;;;4961378;28;20273;-79
2023/03/16 09:01:12;;;;;;;16.73;15.43;;;10.00;99.90;;;;;;4968372;28;20233;-79
2023/03/16 09:03:41;;;;;;;16.73;15.37;;;10.20;99.90;;;;;;4962299;28;20290;-77
2023/03/16 09:06:10;;;;;;;17.00;15.70;;;10.20;99.90;;;;;;4950840;28;20202;-79
2023/03/16 09:08:38;;;;;;;17.27;15.97;;;10.30;99.90;;;;;;4963952;28;20651;-79
2023/03/16 09:11:07;;;;;;;17.93;16.53;;;10.20;99.90;;;;;;4961895;28;20722;-79
2023/03/16 09:13:35;;;;;;;17.63;16.13;;;10.20;99.90;;;;;;4962153;28;20295;-77
2023/03/16 09:16:02;;;;;;;13.53;12.23;;;10.50;99.90;;;;;;4955913;28;20265;-78
2023/03/16 09:18:30;;;;;;;10.17;8.93;;;11.00;99.90;;;;;;4951299;28;20207;-76
2023/03/16 09:21:00;;;;;;;16.73;15.23;;;11.30;99.90;;;;;;4956505;28;20222;-76
2023/03/16 09:23:28;;;;;;;15.37;14.20;;;11.40;99.90;;;;;;4964960;28;20252;-76
2023/03/16 09:25:59;;;;;;;15.67;14.43;;;11.50;99.90;;;;;;4963864;28;20198;-76
2023/03/16 09:28:26;;;;;;;16.57;15.27;;;11.50;99.90;;;;;;4966995;28;20228;-78
2023/03/16 09:30:53;;;;;;;15.50;14.23;;;11.10;99.90;;;;;;4971493;28;20607;-78
2023/03/16 09:33:20;;;;;;;13.10;12.07;;;10.80;99.90;;;;;;4961872;28;20201;-76
2023/03/16 09:35:48;;;;;;;15.07;13.97;;;11.30;99.90;;;;;;4960569;28;20236;-78
2023/03/16 09:38:16;;;;;;;9.80;8.77;;;11.50;99.90;;;;;;4960922;28;20205;-77
2023/03/16 09:40:44;;;;;;;14.03;12.93;;;11.40;99.90;;;;;;4961931;28;20266;-77
2023/03/16 09:43:26;;;;;;;13.30;12.30;;;11.30;99.90;;;;;;4955611;28;20195;-77
2023/03/16 09:46:04;;;;;;;13.87;12.87;;;11.60;99.90;;;;;;4961179;28;20680;-78
2023/03/16 09:48:34;;;;;;;12.87;11.93;;;11.70;99.90;;;;;;4956662;28;20212;-77
2023/03/16 09:51:03;;;;;;;13.50;12.40;;;11.50;99.90;;;;;;4951522;28;20298;-76
2023/03/16 09:53:34;;;;;;;13.43;12.33;;;11.40;99.90;;;;;;4949333;28;20194;-76
2023/03/16 09:56:03;;;;;;;14.00;12.83;;;11.60;99.90;;;;;;4955211;28;20578;-77
2023/03/16 09:58:32;;;;;;;10.77;9.87;;;11.40;99.90;;;;;;4947575;28;20269;-76
2023/03/16 10:01:08;;;;;;;13.50;12.50;;;11.20;99.90;;;;;;4953114;28;20305;-78
2023/03/16 10:03:59;;;;;;;13.63;12.47;;;11.20;99.90;;;;;;4950862;28;20261;-79
2023/03/16 10:06:27;;;;;;;9.33;8.43;;;11.20;99.90;;;;;;4948914;28;20685;-80
2023/03/16 10:09:03;;;;;;;8.40;7.60;;;11.40;99.90;;;;;;4951863;28;20241;-79
2023/03/16 10:11:34;;;;;;;10.37;9.47;;;11.40;99.90;;;;;;4946585;28;20655;-78
2023/03/16 10:14:04;;;;;;;12.67;11.57;;;11.10;99.90;;;;;;4953626;28;20206;-79
2023/03/16 10:16:37;;;;;;;11.90;10.80;;;10.80;99.90;;;;;;4950011;28;20623;-79
2023/03/16 10:19:12;;;;;;;11.40;10.50;;;10.70;99.90;;;;;;4948699;28;20199;-78
2023/03/16 10:21:42;;;;;;;11.63;10.73;;;10.90;99.90;;;;;;4954268;28;20224;-79
2023/03/16 10:24:24;;;;;;;11.90;10.30;;;11.10;99.90;;;;;;4953965;28;20669;-79
2023/03/16 10:26:58;;;;;;;11.27;10.27;;;11.20;99.90;;;;;;4951291;28;20288;-79
2023/03/16 10:29:28;;;;;;;11.10;10.10;;;11.20;99.90;;;;;;4962095;28;20264;-78
2023/03/16 10:32:00;;;;;;;10.87;10.07;;;11.20;99.90;;;;;;4950538;28;20257;-78
2023/03/16 10:34:27;;;;;;;10.90;9.90;;;11.40;99.90;;;;;;4948347;28;20210;-78
2023/03/16 10:36:55;;;;;;;10.47;9.73;;;11.40;99.90;;;;;;4952444;28;20206;-78
2023/03/16 10:39:23;;;;;;;10.80;9.90;;;11.40;99.90;;;;;;4943124;28;20276;-79
2023/03/16 10:41:56;;;;;;;11.37;9.73;;;11.40;99.90;;;;;;4960742;28;20225;-78
2023/03/16 10:44:24;;;;;;;10.47;9.60;;;11.60;99.90;;;;;;4948545;28;20195;-79
2023/03/16 10:46:59;;;;;;;9.70;9.00;;;11.70;99.90;;;;;;4953479;28;20221;-78
2023/03/16 10:49:28;;;;;;;9.40;8.70;;;11.90;99.90;;;;;;4947883;28;20270;-78
2023/03/16 10:51:58;;;;;;;8.30;7.70;;;12.00;99.90;;;;;;4951951;28;20771;-78
2023/03/16 10:54:30;;;;;;;8.50;7.90;;;12.00;99.90;;;;;;4954170;28;20669;-79
2023/03/16 10:56:57;;;;;;;8.27;7.73;;;12.00;99.90;;;;;;4947628;28;20625;-78
2023/03/16 10:59:33;;;;;;;8.07;7.47;;;11.70;99.90;;;;;;4948792;28;20191;-79
2023/03/16 11:02:02;;;;;;;7.70;7.20;;;11.80;99.90;;;;;;4954296;28;20237;-78
2023/03/16 11:04:32;;;;;;;8.00;7.50;;;11.90;99.90;;;;;;4950061;28;20205;-79
2023/03/16 11:06:59;;;;;;;8.33;7.73;;;11.90;99.90;;;;;;4946731;28;20198;-77
2023/03/16 11:09:33;;;;;;;7.47;7.07;;;11.90;99.90;;;;;;4951323;28;20221;-79
2023/03/16 11:12:02;;;;;;;8.27;7.67;;;11.90;99.90;;;;;;4949968;28;20218;-79
2023/03/16 11:14:29;;;;;;;8.27;7.67;;;11.80;99.90;;;;;;4946622;28;20203;-78
2023/03/16 11:17:03;;;;;;;7.60;7.10;;;11.70;99.90;;;;;;4952543;28;20213;-86
2023/03/16 11:19:31;;;;;;;7.27;6.77;;;11.50;99.90;;;;;;4944555;28;20673;-86
2023/03/16 11:22:02;;;;;;;7.17;6.67;;;11.60;99.90;;;;;;4951180;28;20218;-86
2023/03/16 11:24:41;;;;;;;8.03;7.50;;;11.60;99.90;;;;;;4951086;28;20202;-86
2023/03/16 11:27:17;;;;;;;8.27;7.60;;;11.50;99.90;;;;;;4953914;28;20241;-86
2023/03/16 11:29:54;;;;;;;8.40;7.80;;;11.40;99.90;;;;;;4950245;28;20241;-86
2023/03/16 11:32:26;;;;;;;8.13;7.63;;;11.40;99.90;;;;;;4945791;28;20655;-86
2023/03/16 11:34:52;;;;;;;8.40;7.90;;;11.50;99.90;;;;;;4948418;28;20289;-85
2023/03/16 11:37:35;;;;;;;7.90;7.40;;;11.50;99.90;;;;;;4954047;28;20733;-85
2023/03/16 11:40:14;;;;;;;7.97;7.47;;;11.50;99.90;;;;;;4949878;28;20556;-85
2023/03/16 11:42:47;;;;;;;8.53;7.83;;;11.60;99.90;;;;;;4951125;28;20228;-85
2023/03/16 11:45:22;;;;;;;8.23;7.63;;;11.50;99.90;;;;;;4946898;28;20210;-85
2023/03/16 11:48:09;;;;;;;9.13;8.43;;;11.50;99.90;;;;;;4950918;28;20202;-85
2023/03/16 11:50:45;;;;;;;8.27;7.67;;;11.60;99.90;;;;;;4944182;28;20226;-86
2023/03/16 11:53:24;;;;;;;8.60;7.80;;;11.70;99.90;;;;;;4953215;28;20285;-86
2023/03/16 11:56:05;;;;;;;8.87;8.10;;;11.60;99.90;;;;;;4951136;28;20203;-85
2023/03/16 11:58:58;;;;;;;8.33;7.83;;;11.50;99.90;;;;;;4950746;28;20246;-85
2023/03/16 12:01:38;;;;;;;8.80;8.10;;;11.40;99.90;;;;;;4948502;28;20226;-82
2023/03/16 12:04:26;;;;;;;8.90;8.20;;;11.30;99.90;;;;;;4948312;28;20207;-86
2023/03/16 12:07:15;;;;;;;8.30;7.70;;;11.40;99.90;;;;;;4947482;28;20206;-86
2023/03/16 12:10:09;;;;;;;8.47;7.87;;;11.60;99.90;;;;;;4956755;28;20597;-86
2023/03/16 12:12:50;;;;;;;9.37;8.60;;;11.80;99.90;;;;;;4948982;28;20261;-81
2023/03/16 12:15:32;;;;;;;8.70;7.93;;;11.80;99.90;;;;;;4961536;28;20577;-86
2023/03/16 12:18:05;;;;;;;8.33;7.73;;;11.70;99.90;;;;;;4961126;28;20198;-84
2023/03/16 12:20:38;;;;;;;8.30;7.70;;;11.80;99.90;;;;;;4947468;29;20250;-86
2023/03/16 12:23:12;;;;;;;8.60;8.00;;;11.90;99.90;;;;;;4952000;28;20229;-87
2023/03/16 12:25:44;;;;;;;8.73;7.97;;;12.10;99.90;;;;;;4954354;28;20245;-85
2023/03/16 12:28:21;;;;;;;8.70;8.03;;;12.10;99.90;;;;;;4961120;28;20206;-85
2023/03/16 12:31:04;;;;;;;8.20;7.60;;;12.00;99.90;;;;;;4956507;28;20234;-86
2023/03/16 12:33:43;;;;;;;7.93;7.43;;;11.90;99.90;;;;;;4967176;28;20202;-84
2023/03/16 12:36:38;;;;;;;8.50;7.90;;;11.80;99.90;;;;;;4959563;28;20606;-84
2023/03/16 12:39:08;;;;;;;8.30;7.70;;;11.80;99.90;;;;;;4951455;28;20691;-84
2023/03/16 12:41:42;;;;;;;8.50;7.90;;;11.80;99.90;;;;;;4962339;28;20223;-84
2023/03/16 12:44:17;;;;;;;8.77;7.97;;;11.80;99.90;;;;;;4959540;28;20202;-85
2023/03/16 12:46:55;;;;;;;8.60;8.00;;;11.80;99.90;;;;;;4951580;28;20206;-84
2023/03/16 12:49:24;;;;;;;8.60;7.90;;;11.70;99.90;;;;;;4958219;28;20209;-84
2023/03/16 12:51:59;;;;;;;8.50;7.80;;;11.70;99.90;;;;;;4965279;28;20313;-84
2023/03/16 12:54:26;;;;;;;8.30;7.63;;;11.60;99.90;;;;;;4947992;29;20215;-85
2023/03/16 12:57:00;;;;;;;7.80;7.30;;;11.70;99.90;;;;;;4953482;28;20202;-84
2023/03/16 12:59:38;;;;;;;8.07;7.47;;;11.60;99.90;;;;;;4957632;28;20617;-85
2023/03/16 13:02:13;;;;;;;7.87;7.37;;;11.70;99.90;;;;;;4961839;28;20241;-85
2023/03/16 13:04:43;;;;;;;8.40;7.70;;;11.80;99.90;;;;;;4965113;28;20251;-85
2023/03/16 13:07:17;;;;;;;8.53;7.83;;;11.80;99.90;;;;;;4965034;28;20256;-85
2023/03/16 13:09:48;;;;;;;7.97;7.37;;;11.90;99.90;;;;;;4961903;28;20218;-86
2023/03/16 13:12:27;;;;;;;7.93;7.33;;;12.00;99.90;;;;;;4958878;28;20297;-86
2023/03/16 13:14:56;;;;;;;7.80;7.30;;;12.20;99.90;;;;;;4969021;28;20702;-84
2023/03/16 13:17:25;;;;;;;7.77;7.27;;;12.20;99.90;;;;;;4946575;28;20194;-85
2023/03/16 13:20:03;;;;;;;8.23;7.40;;;12.20;99.90;;;;;;4949315;28;20206;-83
2023/03/16 13:22:41;;;;;;;7.67;7.13;;;12.00;99.90;;;;;;4949816;28;20225;-83
2023/03/16 13:25:16;;;;;;;7.90;7.40;;;12.00;99.90;;;;;;4949271;28;20293;-80
2023/03/16 13:27:47;;;;;;;7.90;7.40;;;12.10;99.90;;;;;;4951218;28;20226;-81
2023/03/16 13:30:20;;;;;;;8.50;7.90;;;12.20;99.90;;;;;;4951258;28;20217;-82
2023/03/16 13:32:52;;;;;;;7.90;7.40;;;12.10;99.90;;;;;;4949483;28;20719;-85
2023/03/16 13:35:26;;;;;;;7.90;7.20;;;12.10;99.90;;;;;;4960475;28;20229;-86
2023/03/16 13:38:15;;;;;;;8.13;7.53;;;12.10;99.90;;;;;;4951718;28;20293;-84
2023/03/16 13:40:46;;;;;;;8.03;7.53;;;12.20;99.90;;;;;;4944397;28;20206;-82
2023/03/16 13:43:16;;;;;;;8.50;7.90;;;12.10;99.90;;;;;;4952721;28;20233;-84
2023/03/16 13:45:47;;;;;;;8.03;7.53;;;12.20;99.90;;;;;;4962403;28;20241;-85
2023/03/16 13:48:15;;;;;;;8.07;7.57;;;12.30;99.90;;;;;;4966410;28;20202;-85
2023/03/16 13:50:43;;;;;;;8.30;7.70;;;12.50;99.90;;;;;;4961161;28;20217;-84
2023/03/16 13:53:17;;;;;;;8.40;7.80;;;12.60;99.90;;;;;;4958677;28;20203;-84
2023/03/16 13:55:46;;;;;;;8.67;7.97;;;12.60;99.90;;;;;;4951224;28;20246;-80
2023/03/16 13:58:22;;;;;;;9.20;8.33;;;12.60;99.90;;;;;;4938536;28;20206;-80
2023/03/16 14:00:54;;;;;;;8.90;8.30;;;12.70;99.90;;;;;;4958036;28;20228;-79
2023/03/16 14:03:22;;;;;;;8.13;7.63;;;12.70;99.90;;;;;;4958563;28;20580;-77
2023/03/16 14:05:49;;;;;;;8.50;7.90;;;12.90;99.90;;;;;;4953945;28;20489;-79
2023/03/16 14:08:18;;;;;;;9.40;8.73;;;13.00;99.90;;;;;;4948813;28;20604;-78
2023/03/16 14:10:46;;;;;;;9.40;8.80;;;13.20;99.90;;;;;;4953642;28;20290;-78
2023/03/16 14:13:25;;;;;;;9.67;8.97;;;13.30;99.90;;;;;;4950652;28;20205;-77
2023/03/16 14:15:55;;;;;;;9.80;9.10;;;13.30;99.90;;;;;;4953539;28;20199;-78
2023/03/16 14:18:27;;;;;;;9.63;9.03;;;13.30;99.90;;;;;;4948004;28;20199;-77
2023/03/16 14:20:55;;;;;;;10.40;9.50;;;13.30;99.90;;;;;;4971446;28;20275;-77
2023/03/16 14:23:25;;;;;;;9.50;8.80;;;13.10;99.90;;;;;;4954176;28;20643;-78
2023/03/16 14:25:53;;;;;;;9.60;8.90;;;13.00;99.90;;;;;;4956823;28;20199;-79
2023/03/16 14:28:26;;;;;;;9.60;8.90;;;13.00;99.90;;;;;;4955216;28;20664;-79
2023/03/16 14:31:03;;;;;;;10.00;9.33;;;12.90;99.90;;;;;;4960265;28;20234;-80
2023/03/16 14:33:33;;;;;;;9.73;9.13;;;12.90;99.90;;;;;;4959915;28;20198;-80
2023/03/16 14:36:09;;;;;;;9.47;8.87;;;13.00;99.90;;;;;;4953007;28;20204;-79
2023/03/16 14:38:39;;;;;;;9.13;8.53;;;12.80;99.90;;;;;;4960717;28;20217;-80
2023/03/16 14:41:14;;;;;;;10.03;9.27;;;12.80;99.90;;;;;;4953715;28;20215;-81
2023/03/16 14:43:48;;;;;;;9.77;9.17;;;12.80;99.90;;;;;;4955866;28;20202;-81
2023/03/16 14:46:22;;;;;;;9.70;9.00;;;12.80;99.90;;;;;;4955460;28;20209;-80
2023/03/16 14:48:49;;;;;;;10.13;9.43;;;12.80;99.90;;;;;;4970347;28;20202;-81
2023/03/16 14:51:16;;;;;;;9.70;9.00;;;12.80;99.90;;;;;;4964321;28;20226;-82
2023/03/16 14:53:43;;;;;;;9.90;9.20;;;12.90;99.90;;;;;;4960828;28;20230;-81
2023/03/16 14:56:13;;;;;;;10.40;9.60;;;13.00;99.90;;;;;;4952577;28;20214;-81
2023/03/16 14:58:40;;;;;;;10.07;9.37;;;13.00;99.90;;;;;;4954747;28;20206;-80
2023/03/16 15:01:13;;;;;;;9.63;9.03;;;13.00;99.90;;;;;;4949023;28;20825;-81
2023/03/16 15:03:42;;;;;;;9.70;9.00;;;13.00;99.90;;;;;;4957630;28;20767;-80
2023/03/16 15:06:09;;;;;;;9.43;8.83;;;13.00;99.90;;;;;;4954772;28;20195;-77
2023/03/16 15:08:43;;;;;;;9.70;9.00;;;13.10;99.90;;;;;;4963410;28;20211;-83
2023/03/16 15:11:10;;;;;;;9.60;8.90;;;13.00;99.90;;;;;;4958822;28;20221;-81
2023/03/16 15:13:51;;;;;;;9.80;9.00;;;13.00;99.90;;;;;;4952167;28;20211;-83
2023/03/16 15:16:20;;;;;;;9.50;8.80;;;13.10;99.90;;;;;;4955019;28;20257;-83
2023/03/16 15:18:48;;;;;;;9.73;9.13;;;13.00;99.90;;;;;;4943370;28;20652;-82
2023/03/16 15:21:19;;;;;;;10.10;9.40;;;12.90;99.90;;;;;;4954238;28;20274;-82
2023/03/16 15:23:46;;;;;;;9.80;9.10;;;12.90;99.90;;;;;;4958039;28;20271;-83
2023/03/16 15:26:15;;;;;;;9.80;9.10;;;12.90;99.90;;;;;;4952717;28;20922;-82
2023/03/16 15:28:42;;;;;;;10.33;9.37;;;12.80;99.90;;;;;;4953645;28;20227;-78
2023/03/16 15:31:13;;;;;;;9.80;9.10;;;12.80;99.90;;;;;;4952227;28;20223;-79
2023/03/16 15:33:40;;;;;;;10.10;9.17;;;12.80;99.90;;;;;;4950863;28;20203;-79
2023/03/16 15:36:14;;;;;;;10.23;9.53;;;12.80;99.90;;;;;;4952637;28;20203;-79
2023/03/16 15:38:45;;;;;;;10.27;9.47;;;12.80;99.90;;;;;;4944237;28;20203;-77
2023/03/16 15:41:13;;;;;;;10.00;9.23;;;12.80;99.90;;;;;;4953126;28;20219;-78
2023/03/16 15:43:39;;;;;;;10.03;9.33;;;12.80;99.90;;;;;;4950841;28;20919;-78
2023/03/16 15:46:06;;;;;;;10.00;9.30;;;12.80;99.90;;;;;;4947959;28;20214;-78
2023/03/16 15:48:33;;;;;;;9.47;8.87;;;12.80;99.90;;;;;;4947266;28;20280;-78
2023/03/16 15:51:02;;;;;;;10.20;9.50;;;12.80;99.90;;;;;;4949408;28;20236;-78
2023/03/16 15:53:35;;;;;;;9.77;9.07;;;12.80;99.90;;;;;;4948354;28;20344;-77
2023/03/16 15:56:04;;;;;;;9.73;9.03;;;12.80;99.90;;;;;;4945570;28;20579;-79
2023/03/16 15:58:34;;;;;;;10.73;9.93;;;12.80;99.90;;;;;;4950213;28;20619;-78